sensor_id;sensor_type;location;lat;lon;timestamp;pressure;altitude;pressure_sealevel;temperature;humidity
59939;BME280;45801;51.810;19.444;2023-04-21T00:00:53;99477.86;;;11.98;50.83
59939;BME280;45801;51.810;19.444;2023-04-21T00:03:21;99477.77;;;11.96;50.99
59939;BME280;45801;51.810;19.444;2023-04-21T00:05:49;99477.00;;;11.94;50.81
59939;BME280;45801;51.810;19.444;2023-04-21T00:08:16;99474.09;;;11.92;50.71
59939;BME280;45801;51.810;19.444;2023-04-21T00:10:44;99474.88;;;11.90;50.74
59939;BME280;45801;51.810;19.444;2023-04-21T00:13:12;99478.09;;;11.88;51.03
59939;BME280;45801;51.810;19.444;2023-04-21T00:15:39;99485.36;;;11.85;51.21
59939;BME280;45801;51.810;19.444;2023-04-21T00:18:06;99479.44;;;11.82;50.99
59939;BME280;45801;51.810;19.444;2023-04-21T00:20:33;99477.66;;;11.82;51.27
59939;BME280;45801;51.810;19.444;2023-04-21T00:23:00;99476.86;;;11.80;51.51
59939;BME280;45801;51.810;19.444;2023-04-21T00:25:27;99473.80;;;11.77;51.08
59939;BME280;45801;51.810;19.444;2023-04-21T00:27:53;99470.20;;;11.75;51.14
59939;BME280;45801;51.810;19.444;2023-04-21T00:30:20;99468.84;;;11.72;51.19
59939;BME280;45801;51.810;19.444;2023-04-21T00:32:46;99473.16;;;11.71;51.25
59939;BME280;45801;51.810;19.444;2023-04-21T00:35:13;99471.36;;;11.70;51.47
59939;BME280;45801;51.810;19.444;2023-04-21T00:37:39;99467.62;;;11.68;51.31
59939;BME280;45801;51.810;19.444;2023-04-21T00:40:07;99467.36;;;11.66;51.40
59939;BME280;45801;51.810;19.444;2023-04-21T00:42:34;99466.23;;;11.64;51.58
59939;BME280;45801;51.810;19.444;2023-04-21T00:45:02;99467.38;;;11.63;51.70
59939;BME280;45801;51.810;19.444;2023-04-21T00:47:28;99468.88;;;11.61;51.72
59939;BME280;45801;51.810;19.444;2023-04-21T00:49:56;99467.13;;;11.61;52.02
59939;BME280;45801;51.810;19.444;2023-04-21T00:52:23;99465.56;;;11.61;51.56
59939;BME280;45801;51.810;19.444;2023-04-21T00:54:52;99466.20;;;11.59;51.22
59939;BME280;45801;51.810;19.444;2023-04-21T00:57:19;99461.11;;;11.60;51.59
59939;BME280;45801;51.810;19.444;2023-04-21T00:59:46;99457.69;;;11.58;51.56
59939;BME280;45801;51.810;19.444;2023-04-21T01:02:16;99456.92;;;11.56;51.59
59939;BME280;45801;51.810;19.444;2023-04-21T01:04:43;99457.94;;;11.55;51.77
59939;BME280;45801;51.810;19.444;2023-04-21T01:07:11;99456.61;;;11.53;51.97
59939;BME280;45801;51.810;19.444;2023-04-21T01:09:37;99456.02;;;11.51;51.94
59939;BME280;45801;51.810;19.444;2023-04-21T01:12:09;99454.36;;;11.49;52.10
59939;BME280;45801;51.810;19.444;2023-04-21T01:14:37;99454.07;;;11.47;52.03
59939;BME280;45801;51.810;19.444;2023-04-21T01:17:04;99456.13;;;11.45;52.17
59939;BME280;45801;51.810;19.444;2023-04-21T01:19:36;99454.10;;;11.43;51.94
59939;BME280;45801;51.810;19.444;2023-04-21T01:22:09;99452.46;;;11.42;52.17
59939;BME280;45801;51.810;19.444;2023-04-21T01:24:44;99451.73;;;11.41;52.08
59939;BME280;45801;51.810;19.444;2023-04-21T01:27:15;99454.14;;;11.40;52.24
59939;BME280;45801;51.810;19.444;2023-04-21T01:29:46;99453.23;;;11.40;52.24
59939;BME280;45801;51.810;19.444;2023-04-21T01:32:20;99453.90;;;11.39;52.22
59939;BME280;45801;51.810;19.444;2023-04-21T01:34:47;99454.52;;;11.37;52.35
59939;BME280;45801;51.810;19.444;2023-04-21T01:37:20;99451.14;;;11.35;52.14
59939;BME280;45801;51.810;19.444;2023-04-21T01:39:49;99451.20;;;11.33;52.33
59939;BME280;45801;51.810;19.444;2023-04-21T01:42:22;99450.46;;;11.32;52.46
59939;BME280;45801;51.810;19.444;2023-04-21T01:44:48;99446.77;;;11.32;52.40
59939;BME280;45801;51.810;19.444;2023-04-21T01:47:16;99445.36;;;11.31;52.31
59939;BME280;45801;51.810;19.444;2023-04-21T01:49:43;99444.23;;;11.30;52.29
59939;BME280;45801;51.810;19.444;2023-04-21T01:52:10;99441.70;;;11.28;52.70
59939;BME280;45801;51.810;19.444;2023-04-21T01:54:37;99440.73;;;11.26;52.37
59939;BME280;45801;51.810;19.444;2023-04-21T01:57:03;99442.19;;;11.24;52.27
59939;BME280;45801;51.810;19.444;2023-04-21T01:59:30;99441.42;;;11.22;52.42
59939;BME280;45801;51.810;19.444;2023-04-21T02:01:57;99442.77;;;11.21;52.55
59939;BME280;45801;51.810;19.444;2023-04-21T02:04:23;99442.75;;;11.20;52.71
59939;BME280;45801;51.810;19.444;2023-04-21T02:06:50;99445.85;;;11.19;52.61
59939;BME280;45801;51.810;19.444;2023-04-21T02:09:16;99445.64;;;11.18;52.82
59939;BME280;45801;51.810;19.444;2023-04-21T02:11:43;99447.02;;;11.18;52.73
59939;BME280;45801;51.810;19.444;2023-04-21T02:14:09;99446.58;;;11.15;52.66
59939;BME280;45801;51.810;19.444;2023-04-21T02:16:37;99451.23;;;11.13;52.55
59939;BME280;45801;51.810;19.444;2023-04-21T02:19:03;99448.66;;;11.11;52.74
59939;BME280;45801;51.810;19.444;2023-04-21T02:21:31;99450.19;;;11.10;52.89
59939;BME280;45801;51.810;19.444;2023-04-21T02:23:58;99448.24;;;11.09;53.07
59939;BME280;45801;51.810;19.444;2023-04-21T02:26:24;99447.02;;;11.09;52.93
59939;BME280;45801;51.810;19.444;2023-04-21T02:28:51;99446.63;;;11.09;53.13
59939;BME280;45801;51.810;19.444;2023-04-21T02:31:17;99446.93;;;11.08;52.96
59939;BME280;45801;51.810;19.444;2023-04-21T02:33:44;99448.62;;;11.06;52.78
59939;BME280;45801;51.810;19.444;2023-04-21T02:36:11;99452.03;;;11.04;52.80
59939;BME280;45801;51.810;19.444;2023-04-21T02:38:37;99454.89;;;11.02;53.05
59939;BME280;45801;51.810;19.444;2023-04-21T02:41:04;99451.58;;;10.98;52.96
59939;BME280;45801;51.810;19.444;2023-04-21T02:43:30;99448.42;;;10.94;53.27
59939;BME280;45801;51.810;19.444;2023-04-21T02:45:57;99449.55;;;10.92;53.30
59939;BME280;45801;51.810;19.444;2023-04-21T02:48:24;99448.72;;;10.89;53.44
59939;BME280;45801;51.810;19.444;2023-04-21T02:50:52;99447.23;;;10.87;53.44
59939;BME280;45801;51.810;19.444;2023-04-21T02:53:19;99446.35;;;10.87;53.33
59939;BME280;45801;51.810;19.444;2023-04-21T02:55:46;99449.19;;;10.84;53.47
59939;BME280;45801;51.810;19.444;2023-04-21T02:58:12;99446.48;;;10.82;53.52
59939;BME280;45801;51.810;19.444;2023-04-21T03:00:39;99448.48;;;10.79;53.70
59939;BME280;45801;51.810;19.444;2023-04-21T03:03:05;99449.47;;;10.78;53.42
59939;BME280;45801;51.810;19.444;2023-04-21T03:05:33;99449.71;;;10.76;53.31
59939;BME280;45801;51.810;19.444;2023-04-21T03:07:59;99450.00;;;10.74;53.63
59939;BME280;45801;51.810;19.444;2023-04-21T03:10:26;99449.70;;;10.72;53.63
59939;BME280;45801;51.810;19.444;2023-04-21T03:12:52;99449.06;;;10.70;53.77
59939;BME280;45801;51.810;19.444;2023-04-21T03:15:19;99446.52;;;10.68;53.85
59939;BME280;45801;51.810;19.444;2023-04-21T03:17:46;99446.83;;;10.67;53.82
59939;BME280;45801;51.810;19.444;2023-04-21T03:20:12;99447.11;;;10.65;53.97
59939;BME280;45801;51.810;19.444;2023-04-21T03:22:39;99451.08;;;10.64;53.97
59939;BME280;45801;51.810;19.444;2023-04-21T03:25:05;99450.63;;;10.61;54.08
59939;BME280;45801;51.810;19.444;2023-04-21T03:27:33;99456.88;;;10.60;54.19
59939;BME280;45801;51.810;19.444;2023-04-21T03:30:00;99453.94;;;10.58;53.94
59939;BME280;45801;51.810;19.444;2023-04-21T03:32:26;99456.28;;;10.55;54.21
59939;BME280;45801;51.810;19.444;2023-04-21T03:34:52;99458.31;;;10.54;53.90
59939;BME280;45801;51.810;19.444;2023-04-21T03:37:19;99458.17;;;10.51;54.20
59939;BME280;45801;51.810;19.444;2023-04-21T03:39:46;99454.27;;;10.50;53.94
59939;BME280;45801;51.810;19.444;2023-04-21T03:42:12;99453.47;;;10.48;53.89
59939;BME280;45801;51.810;19.444;2023-04-21T03:44:39;99454.11;;;10.46;54.06
59939;BME280;45801;51.810;19.444;2023-04-21T03:47:05;99455.58;;;10.44;53.95
59939;BME280;45801;51.810;19.444;2023-04-21T03:49:35;99454.17;;;10.40;53.87
59939;BME280;45801;51.810;19.444;2023-04-21T03:52:01;99455.26;;;10.37;54.49
59939;BME280;45801;51.810;19.444;2023-04-21T03:54:28;99452.70;;;10.35;54.49
59939;BME280;45801;51.810;19.444;2023-04-21T03:56:54;99451.75;;;10.34;54.64
59939;BME280;45801;51.810;19.444;2023-04-21T03:59:21;99455.36;;;10.33;54.97
59939;BME280;45801;51.810;19.444;2023-04-21T04:01:47;99456.55;;;10.32;54.88
59939;BME280;45801;51.810;19.444;2023-04-21T04:04:14;99452.73;;;10.29;54.89
59939;BME280;45801;51.810;19.444;2023-04-21T04:06:40;99451.20;;;10.30;54.89
59939;BME280;45801;51.810;19.444;2023-04-21T04:09:07;99455.27;;;10.31;55.31
59939;BME280;45801;51.810;19.444;2023-04-21T04:11:34;99451.59;;;10.31;55.40
59939;BME280;45801;51.810;19.444;2023-04-21T04:14:00;99454.39;;;10.31;55.42
59939;BME280;45801;51.810;19.444;2023-04-21T04:16:27;99458.08;;;10.31;55.49
59939;BME280;45801;51.810;19.444;2023-04-21T04:18:54;99462.64;;;10.31;55.42
59939;BME280;45801;51.810;19.444;2023-04-21T04:21:21;99461.44;;;10.31;55.18
59939;BME280;45801;51.810;19.444;2023-04-21T04:23:49;99465.02;;;10.33;55.33
59939;BME280;45801;51.810;19.444;2023-04-21T04:26:17;99464.19;;;10.34;55.17
59939;BME280;45801;51.810;19.444;2023-04-21T04:28:44;99464.22;;;10.34;55.28
59939;BME280;45801;51.810;19.444;2023-04-21T04:31:11;99465.48;;;10.35;55.25
59939;BME280;45801;51.810;19.444;2023-04-21T04:33:43;99466.79;;;10.37;55.37
59939;BME280;45801;51.810;19.444;2023-04-21T04:36:09;99468.87;;;10.40;55.19
59939;BME280;45801;51.810;19.444;2023-04-21T04:38:39;99465.16;;;10.43;55.07
59939;BME280;45801;51.810;19.444;2023-04-21T04:41:07;99464.23;;;10.46;54.85
59939;BME280;45801;51.810;19.444;2023-04-21T04:43:34;99465.06;;;10.49;55.26
59939;BME280;45801;51.810;19.444;2023-04-21T04:46:04;99464.39;;;10.53;55.20
59939;BME280;45801;51.810;19.444;2023-04-21T04:48:31;99462.85;;;10.57;55.07
59939;BME280;45801;51.810;19.444;2023-04-21T04:50:57;99466.33;;;10.60;55.11
59939;BME280;45801;51.810;19.444;2023-04-21T04:53:24;99465.09;;;10.64;55.07
59939;BME280;45801;51.810;19.444;2023-04-21T04:55:52;99465.23;;;10.67;55.09
59939;BME280;45801;51.810;19.444;2023-04-21T04:58:19;99465.20;;;10.70;54.72
59939;BME280;45801;51.810;19.444;2023-04-21T05:00:45;99468.48;;;10.73;55.01
59939;BME280;45801;51.810;19.444;2023-04-21T05:03:12;99472.85;;;10.76;54.99
59939;BME280;45801;51.810;19.444;2023-04-21T05:05:38;99473.69;;;10.79;54.48
59939;BME280;45801;51.810;19.444;2023-04-21T05:08:05;99471.34;;;10.82;54.58
59939;BME280;45801;51.810;19.444;2023-04-21T05:10:33;99471.11;;;10.84;54.44
59939;BME280;45801;51.810;19.444;2023-04-21T05:13:01;99471.61;;;10.88;54.34
59939;BME280;45801;51.810;19.444;2023-04-21T05:15:28;99476.15;;;10.91;54.42
59939;BME280;45801;51.810;19.444;2023-04-21T05:17:54;99475.95;;;10.94;54.44
59939;BME280;45801;51.810;19.444;2023-04-21T05:20:21;99477.84;;;10.97;54.10
59939;BME280;45801;51.810;19.444;2023-04-21T05:22:48;99481.34;;;11.01;54.23
59939;BME280;45801;51.810;19.444;2023-04-21T05:25:14;99482.60;;;11.06;54.27
59939;BME280;45801;51.810;19.444;2023-04-21T05:27:41;99482.69;;;11.11;53.99
59939;BME280;45801;51.810;19.444;2023-04-21T05:30:08;99480.38;;;11.19;53.41
59939;BME280;45801;51.810;19.444;2023-04-21T05:32:36;99476.19;;;11.23;53.52
59939;BME280;45801;51.810;19.444;2023-04-21T05:35:04;99479.20;;;11.28;53.20
59939;BME280;45801;51.810;19.444;2023-04-21T05:37:30;99478.89;;;11.33;53.52
59939;BME280;45801;51.810;19.444;2023-04-21T05:39:57;99477.73;;;11.38;53.12
59939;BME280;45801;51.810;19.444;2023-04-21T05:42:23;99482.27;;;11.42;52.84
59939;BME280;45801;51.810;19.444;2023-04-21T05:44:49;99483.96;;;11.44;52.55
59939;BME280;45801;51.810;19.444;2023-04-21T05:47:16;99484.55;;;11.50;52.67
59939;BME280;45801;51.810;19.444;2023-04-21T05:49:42;99485.63;;;11.55;52.95
59939;BME280;45801;51.810;19.444;2023-04-21T05:52:15;99486.94;;;11.61;52.57
59939;BME280;45801;51.810;19.444;2023-04-21T05:54:43;99485.73;;;11.65;52.10
59939;BME280;45801;51.810;19.444;2023-04-21T05:57:09;99485.73;;;11.69;52.14
59939;BME280;45801;51.810;19.444;2023-04-21T05:59:36;99485.16;;;11.72;51.90
59939;BME280;45801;51.810;19.444;2023-04-21T06:02:02;99485.98;;;11.75;51.79
59939;BME280;45801;51.810;19.444;2023-04-21T06:04:29;99485.42;;;11.78;51.44
59939;BME280;45801;51.810;19.444;2023-04-21T06:06:55;99482.58;;;11.82;51.56
59939;BME280;45801;51.810;19.444;2023-04-21T06:09:22;99481.34;;;11.86;51.37
59939;BME280;45801;51.810;19.444;2023-04-21T06:11:48;99482.54;;;11.89;51.53
59939;BME280;45801;51.810;19.444;2023-04-21T06:14:16;99478.70;;;11.93;51.33
59939;BME280;45801;51.810;19.444;2023-04-21T06:16:42;99479.85;;;11.99;51.60
59939;BME280;45801;51.810;19.444;2023-04-21T06:19:09;99478.91;;;12.07;51.38
59939;BME280;45801;51.810;19.444;2023-04-21T06:21:35;99475.18;;;12.14;51.42
59939;BME280;45801;51.810;19.444;2023-04-21T06:24:02;99476.53;;;12.22;50.86
59939;BME280;45801;51.810;19.444;2023-04-21T06:26:29;99475.55;;;12.28;50.74
59939;BME280;45801;51.810;19.444;2023-04-21T06:28:55;99475.02;;;12.36;51.10
59939;BME280;45801;51.810;19.444;2023-04-21T06:31:22;99473.69;;;12.43;50.15
59939;BME280;45801;51.810;19.444;2023-04-21T06:33:48;99475.48;;;12.48;49.71
59939;BME280;45801;51.810;19.444;2023-04-21T06:36:14;99479.10;;;12.55;49.90
59939;BME280;45801;51.810;19.444;2023-04-21T06:38:41;99474.98;;;12.62;50.16
59939;BME280;45801;51.810;19.444;2023-04-21T06:41:09;99471.89;;;12.69;49.39
59939;BME280;45801;51.810;19.444;2023-04-21T06:43:35;99470.45;;;12.73;49.25
59939;BME280;45801;51.810;19.444;2023-04-21T06:46:02;99471.52;;;12.73;49.02
59939;BME280;45801;51.810;19.444;2023-04-21T06:48:28;99472.77;;;12.78;48.91
59939;BME280;45801;51.810;19.444;2023-04-21T06:50:55;99473.89;;;12.84;49.16
59939;BME280;45801;51.810;19.444;2023-04-21T06:53:22;99477.27;;;12.89;48.97
59939;BME280;45801;51.810;19.444;2023-04-21T06:55:48;99475.39;;;12.96;49.27
59939;BME280;45801;51.810;19.444;2023-04-21T06:58:15;99476.92;;;13.04;49.52
59939;BME280;45801;51.810;19.444;2023-04-21T07:00:42;99477.23;;;13.13;48.98
59939;BME280;45801;51.810;19.444;2023-04-21T07:03:08;99479.64;;;13.21;49.04
59939;BME280;45801;51.810;19.444;2023-04-21T07:05:35;99476.72;;;13.28;48.23
59939;BME280;45801;51.810;19.444;2023-04-21T07:08:01;99473.10;;;13.34;49.14
59939;BME280;45801;51.810;19.444;2023-04-21T07:10:28;99472.03;;;13.43;49.14
59939;BME280;45801;51.810;19.444;2023-04-21T07:12:54;99475.05;;;13.49;48.04
59939;BME280;45801;51.810;19.444;2023-04-21T07:15:21;99473.88;;;13.55;49.05
59939;BME280;45801;51.810;19.444;2023-04-21T07:17:48;99471.27;;;13.61;48.63
59939;BME280;45801;51.810;19.444;2023-04-21T07:20:14;99468.15;;;13.68;48.78
59939;BME280;45801;51.810;19.444;2023-04-21T07:22:40;99472.60;;;13.75;48.58
59939;BME280;45801;51.810;19.444;2023-04-21T07:25:07;99470.42;;;13.83;49.16
59939;BME280;45801;51.810;19.444;2023-04-21T07:27:34;99474.91;;;13.91;48.77
59939;BME280;45801;51.810;19.444;2023-04-21T07:30:03;99473.92;;;13.98;48.52
59939;BME280;45801;51.810;19.444;2023-04-21T07:32:30;99476.13;;;14.06;48.02
59939;BME280;45801;51.810;19.444;2023-04-21T07:34:56;99471.91;;;14.12;48.02
59939;BME280;45801;51.810;19.444;2023-04-21T07:37:24;99468.80;;;14.19;48.18
59939;BME280;45801;51.810;19.444;2023-04-21T07:39:50;99466.48;;;14.29;48.25
59939;BME280;45801;51.810;19.444;2023-04-21T07:42:17;99461.83;;;14.38;48.06
59939;BME280;45801;51.810;19.444;2023-04-21T07:44:43;99464.57;;;14.47;46.99
59939;BME280;45801;51.810;19.444;2023-04-21T07:47:09;99463.70;;;14.53;47.30
59939;BME280;45801;51.810;19.444;2023-04-21T07:49:36;99463.27;;;14.60;47.47
59939;BME280;45801;51.810;19.444;2023-04-21T07:52:02;99462.95;;;14.67;47.56
59939;BME280;45801;51.810;19.444;2023-04-21T07:54:29;99460.52;;;14.74;46.44
59939;BME280;45801;51.810;19.444;2023-04-21T07:56:55;99460.59;;;14.77;46.50
59939;BME280;45801;51.810;19.444;2023-04-21T07:59:22;99461.26;;;14.82;46.47
59939;BME280;45801;51.810;19.444;2023-04-21T08:01:48;99458.67;;;14.90;46.52
59939;BME280;45801;51.810;19.444;2023-04-21T08:04:16;99458.45;;;15.00;45.71
59939;BME280;45801;51.810;19.444;2023-04-21T08:06:44;99460.17;;;15.11;45.66
59939;BME280;45801;51.810;19.444;2023-04-21T08:09:11;99458.39;;;15.22;46.64
59939;BME280;45801;51.810;19.444;2023-04-21T08:11:37;99454.68;;;15.35;48.09
59939;BME280;45801;51.810;19.444;2023-04-21T08:14:04;99457.86;;;15.54;47.53
59939;BME280;45801;51.810;19.444;2023-04-21T08:16:30;99457.28;;;15.73;48.25
59939;BME280;45801;51.810;19.444;2023-04-21T08:18:57;99455.95;;;15.89;46.35
59939;BME280;45801;51.810;19.444;2023-04-21T08:21:23;99458.23;;;16.03;47.54
59939;BME280;45801;51.810;19.444;2023-04-21T08:23:51;99456.45;;;16.15;45.60
59939;BME280;45801;51.810;19.444;2023-04-21T08:26:17;99453.36;;;16.27;44.76
59939;BME280;45801;51.810;19.444;2023-04-21T08:28:48;99449.91;;;16.38;44.74
59939;BME280;45801;51.810;19.444;2023-04-21T08:31:17;99446.13;;;16.51;45.90
59939;BME280;45801;51.810;19.444;2023-04-21T08:33:44;99445.83;;;16.61;43.33
59939;BME280;45801;51.810;19.444;2023-04-21T08:36:10;99450.32;;;16.72;44.98
59939;BME280;45801;51.810;19.444;2023-04-21T08:38:37;99450.52;;;16.81;42.11
59939;BME280;45801;51.810;19.444;2023-04-21T08:41:04;99453.30;;;16.86;39.07
59939;BME280;45801;51.810;19.444;2023-04-21T08:43:31;99454.49;;;16.91;41.80
59939;BME280;45801;51.810;19.444;2023-04-21T08:45:58;99453.21;;;16.97;42.87
59939;BME280;45801;51.810;19.444;2023-04-21T08:48:26;99453.36;;;17.05;42.14
59939;BME280;45801;51.810;19.444;2023-04-21T08:50:53;99454.77;;;17.13;43.13
59939;BME280;45801;51.810;19.444;2023-04-21T08:53:19;99455.63;;;17.21;40.71
59939;BME280;45801;51.810;19.444;2023-04-21T08:55:50;99453.77;;;17.25;40.24
59939;BME280;45801;51.810;19.444;2023-04-21T08:58:19;99452.56;;;17.27;40.89
59939;BME280;45801;51.810;19.444;2023-04-21T09:00:50;99453.27;;;17.26;38.58
59939;BME280;45801;51.810;19.444;2023-04-21T09:03:21;99451.33;;;17.27;38.67
59939;BME280;45801;51.810;19.444;2023-04-21T09:05:59;99449.91;;;17.27;39.72
59939;BME280;45801;51.810;19.444;2023-04-21T09:08:27;99443.07;;;17.29;40.32
59939;BME280;45801;51.810;19.444;2023-04-21T09:10:56;99442.26;;;17.34;39.50
59939;BME280;45801;51.810;19.444;2023-04-21T09:13:33;99442.89;;;17.38;40.19
59939;BME280;45801;51.810;19.444;2023-04-21T09:16:03;99437.98;;;17.41;37.52
59939;BME280;45801;51.810;19.444;2023-04-21T09:18:31;99441.21;;;17.44;37.66
59939;BME280;45801;51.810;19.444;2023-04-21T09:21:12;99437.38;;;17.47;37.70
59939;BME280;45801;51.810;19.444;2023-04-21T09:26:10;99440.30;;;17.52;37.34
59939;BME280;45801;51.810;19.444;2023-04-21T09:28:45;99436.48;;;17.56;36.63
59939;BME280;45801;51.810;19.444;2023-04-21T09:31:22;99430.18;;;17.61;36.92
59939;BME280;45801;51.810;19.444;2023-04-21T09:33:55;99424.77;;;17.65;37.83
59939;BME280;45801;51.810;19.444;2023-04-21T09:36:26;99432.19;;;17.74;37.32
59939;BME280;45801;51.810;19.444;2023-04-21T09:41:20;99426.41;;;17.87;36.49
59939;BME280;45801;51.810;19.444;2023-04-21T09:43:47;99429.27;;;17.88;35.12
59939;BME280;45801;51.810;19.444;2023-04-21T09:46:16;99428.88;;;17.87;35.16
59939;BME280;45801;51.810;19.444;2023-04-21T09:48:44;99427.98;;;17.87;36.03
59939;BME280;45801;51.810;19.444;2023-04-21T09:51:12;99424.16;;;17.89;34.96
59939;BME280;45801;51.810;19.444;2023-04-21T09:53:40;99425.95;;;17.91;35.16
59939;BME280;45801;51.810;19.444;2023-04-21T09:56:12;99425.04;;;17.89;33.93
59939;BME280;45801;51.810;19.444;2023-04-21T09:58:46;99426.73;;;17.94;35.60
59939;BME280;45801;51.810;19.444;2023-04-21T10:01:14;99417.98;;;18.00;35.43
59939;BME280;45801;51.810;19.444;2023-04-21T10:03:43;99419.13;;;18.06;36.63
59939;BME280;45801;51.810;19.444;2023-04-21T10:06:11;99421.56;;;18.14;36.86
59939;BME280;45801;51.810;19.444;2023-04-21T10:08:37;99414.58;;;18.22;36.55
59939;BME280;45801;51.810;19.444;2023-04-21T10:11:05;99410.39;;;18.26;36.05
59939;BME280;45801;51.810;19.444;2023-04-21T10:13:32;99408.14;;;18.30;36.23
59939;BME280;45801;51.810;19.444;2023-04-21T10:16:03;99408.58;;;18.34;36.22
59939;BME280;45801;51.810;19.444;2023-04-21T10:18:30;99407.80;;;18.42;37.33
59939;BME280;45801;51.810;19.444;2023-04-21T10:21:01;99400.63;;;18.50;37.84
59939;BME280;45801;51.810;19.444;2023-04-21T10:23:35;99402.19;;;18.60;36.87
59939;BME280;45801;51.810;19.444;2023-04-21T10:28:45;99395.13;;;18.76;36.49
59939;BME280;45801;51.810;19.444;2023-04-21T10:36:31;99396.16;;;18.99;36.00
59939;BME280;45801;51.810;19.444;2023-04-21T10:39:01;99396.95;;;19.05;35.65
59939;BME280;45801;51.810;19.444;2023-04-21T10:41:34;99389.92;;;19.12;34.96
59939;BME280;45801;51.810;19.444;2023-04-21T10:44:14;99386.79;;;19.18;34.75
59939;BME280;45801;51.810;19.444;2023-04-21T10:46:46;99381.09;;;19.16;31.19
59939;BME280;45801;51.810;19.444;2023-04-21T10:49:26;99379.08;;;19.12;31.47
59939;BME280;45801;51.810;19.444;2023-04-21T10:57:16;99384.14;;;19.19;31.07
59939;BME280;45801;51.810;19.444;2023-04-21T10:59:44;99381.66;;;19.20;31.49
59939;BME280;45801;51.810;19.444;2023-04-21T11:02:12;99379.71;;;19.20;30.43
59939;BME280;45801;51.810;19.444;2023-04-21T11:04:40;99373.88;;;19.23;32.71
59939;BME280;45801;51.810;19.444;2023-04-21T11:07:12;99367.56;;;19.30;31.89
59939;BME280;45801;51.810;19.444;2023-04-21T11:09:39;99368.83;;;19.32;30.48
59939;BME280;45801;51.810;19.444;2023-04-21T11:12:11;99370.13;;;19.37;30.99
59939;BME280;45801;51.810;19.444;2023-04-21T11:14:45;99372.70;;;19.46;30.89
59939;BME280;45801;51.810;19.444;2023-04-21T11:17:15;99359.42;;;19.52;28.70
59939;BME280;45801;51.810;19.444;2023-04-21T11:19:48;99354.13;;;19.56;30.13
59939;BME280;45801;51.810;19.444;2023-04-21T11:22:16;99357.17;;;19.60;30.00
59939;BME280;45801;51.810;19.444;2023-04-21T11:24:44;99359.39;;;19.68;31.11
59939;BME280;45801;51.810;19.444;2023-04-21T11:27:11;99358.78;;;19.78;30.67
59939;BME280;45801;51.810;19.444;2023-04-21T11:29:40;99349.25;;;19.86;29.40
59939;BME280;45801;51.810;19.444;2023-04-21T11:32:07;99344.88;;;19.94;29.89
59939;BME280;45801;51.810;19.444;2023-04-21T11:34:37;99343.61;;;19.92;27.92
59939;BME280;45801;51.810;19.444;2023-04-21T11:37:06;99343.79;;;19.91;29.26
59939;BME280;45801;51.810;19.444;2023-04-21T11:39:33;99344.18;;;19.96;29.02
59939;BME280;45801;51.810;19.444;2023-04-21T11:41:59;99338.52;;;20.00;28.46
59939;BME280;45801;51.810;19.444;2023-04-21T11:44:36;99336.39;;;20.00;29.42
59939;BME280;45801;51.810;19.444;2023-04-21T11:47:14;99334.66;;;20.07;28.48
59939;BME280;45801;51.810;19.444;2023-04-21T11:52:21;99326.32;;;20.12;28.44
59939;BME280;45801;51.810;19.444;2023-04-21T11:54:53;99321.57;;;20.19;29.31
59939;BME280;45801;51.810;19.444;2023-04-21T11:57:21;99328.17;;;20.24;29.29
59939;BME280;45801;51.810;19.444;2023-04-21T11:59:48;99326.23;;;20.27;28.70
59939;BME280;45801;51.810;19.444;2023-04-21T12:02:28;99320.20;;;20.29;28.33
59939;BME280;45801;51.810;19.444;2023-04-21T12:05:05;99313.98;;;20.30;27.80
59939;BME280;45801;51.810;19.444;2023-04-21T12:07:34;99308.79;;;20.24;26.13
59939;BME280;45801;51.810;19.444;2023-04-21T12:10:07;99311.98;;;20.22;28.14
59939;BME280;45801;51.810;19.444;2023-04-21T12:12:36;99311.11;;;20.27;27.93
59939;BME280;45801;51.810;19.444;2023-04-21T12:15:03;99310.95;;;20.29;28.34
59939;BME280;45801;51.810;19.444;2023-04-21T12:17:58;99304.40;;;20.36;29.03
59939;BME280;45801;51.810;19.444;2023-04-21T12:20:24;99301.08;;;20.45;28.82
59939;BME280;45801;51.810;19.444;2023-04-21T12:22:53;99291.64;;;20.46;26.25
59939;BME280;45801;51.810;19.444;2023-04-21T12:25:20;99287.19;;;20.44;26.91
59939;BME280;45801;51.810;19.444;2023-04-21T12:27:50;99289.35;;;20.48;27.90
59939;BME280;45801;51.810;19.444;2023-04-21T12:30:20;99284.92;;;20.54;27.68
59939;BME280;45801;51.810;19.444;2023-04-21T12:32:47;99284.59;;;20.59;26.58
59939;BME280;45801;51.810;19.444;2023-04-21T12:35:14;99286.52;;;20.56;25.35
59939;BME280;45801;51.810;19.444;2023-04-21T12:37:40;99284.03;;;20.55;26.81
59939;BME280;45801;51.810;19.444;2023-04-21T12:40:07;99280.80;;;20.47;25.82
59939;BME280;45801;51.810;19.444;2023-04-21T12:42:33;99281.15;;;20.48;27.15
59939;BME280;45801;51.810;19.444;2023-04-21T12:45:00;99279.23;;;20.56;27.57
59939;BME280;45801;51.810;19.444;2023-04-21T12:47:26;99281.58;;;20.62;26.49
59939;BME280;45801;51.810;19.444;2023-04-21T12:49:53;99276.27;;;20.69;27.28
59939;BME280;45801;51.810;19.444;2023-04-21T12:52:19;99271.14;;;20.75;27.53
59939;BME280;45801;51.810;19.444;2023-04-21T12:54:46;99265.80;;;20.76;24.87
59939;BME280;45801;51.810;19.444;2023-04-21T12:57:12;99271.11;;;20.68;24.73
59939;BME280;45801;51.810;19.444;2023-04-21T12:59:40;99271.38;;;20.49;24.52
59939;BME280;45801;51.810;19.444;2023-04-21T13:02:07;99271.36;;;20.44;26.48
59939;BME280;45801;51.810;19.444;2023-04-21T13:04:33;99271.89;;;20.45;26.22
59939;BME280;45801;51.810;19.444;2023-04-21T13:07:01;99273.48;;;20.42;26.31
59939;BME280;45801;51.810;19.444;2023-04-21T13:09:27;99266.90;;;20.41;27.25
59939;BME280;45801;51.810;19.444;2023-04-21T13:11:53;99266.02;;;20.45;27.64
59939;BME280;45801;51.810;19.444;2023-04-21T13:14:20;99261.59;;;20.46;26.93